CYUL/YUL METAR and TAF weather

Enter ICAO airport designator
Station Type Date Time Source
CYUL METAR 2020/01/21 21:00 UTC NOAA

CYUL 212100Z 23010G15KT 30SM DRSN BKN110 BKN130 M09/M14 A3036 RMK AC5AC2 SLP286


Station Type Date Time Source
CYUL Decoded METAR 2020/01/21 21:00 UTC NOAA

Montreal / Pierre Elliot Trudeau International Airport, Que, Canada (CYUL) 45-28N 073-45W 36M
Jan 21, 2020 - 04:00 PM EST / 2020.01.21 2100 UTC
Wind: from the SW (230 degrees) at 12 MPH (10 KT) gusting to 17 MPH (15 KT):0
Visibility: 30 mile(s):0
Sky conditions: mostly cloudy
Weather: low drifting snow
Temperature: 15 F (-9 C)
Windchill: 1 F (-17 C):1
Dew Point: 6 F (-14 C)
Relative Humidity: 67%
Pressure (altimeter): 30.36 in. Hg (1028 hPa)
ob: CYUL 212100Z 23010G15KT 30SM DRSN BKN110 BKN130 M09/M14 A3036 RMK AC5AC2 SLP286
cycle: 21

Station Type Date Time Source
CYUL TAF 2020/01/21 21:57 UTC NOAA

TAF CYUL 212043Z 2121/2218 22010KT P6SM BKN120
FM212300 20008KT P6SM BKN030 OVC100
TEMPO 2201/2205 6SM -SN OVC020
FM220500 22008KT P6SM OVC015
TEMPO 2205/2218 OVC025
BECMG 2215/2217 23012G22KT
RMK NXT FCST BY 220000Z

Example: see airport list